sensor_id;sensor_type;location;lat;lon;timestamp;P1;durP1;ratioP1;P2;durP2;ratioP2
6513;SDS011;3290;47.716;9.070;2023-04-07T00:00:49;8.97;;;6.17;;
6513;SDS011;3290;47.716;9.070;2023-04-07T00:03:14;11.10;;;6.53;;
6513;SDS011;3290;47.716;9.070;2023-04-07T00:05:40;10.10;;;6.60;;
6513;SDS011;3290;47.716;9.070;2023-04-07T00:08:05;12.93;;;8.27;;
6513;SDS011;3290;47.716;9.070;2023-04-07T00:10:31;13.17;;;6.53;;
6513;SDS011;3290;47.716;9.070;2023-04-07T00:12:57;9.40;;;6.10;;
6513;SDS011;3290;47.716;9.070;2023-04-07T00:15:22;13.30;;;6.90;;
6513;SDS011;3290;47.716;9.070;2023-04-07T00:17:48;9.90;;;6.67;;
6513;SDS011;3290;47.716;9.070;2023-04-07T00:20:13;9.93;;;6.07;;
6513;SDS011;3290;47.716;9.070;2023-04-07T00:22:38;9.27;;;6.83;;
6513;SDS011;3290;47.716;9.070;2023-04-07T00:25:04;10.67;;;6.30;;
6513;SDS011;3290;47.716;9.070;2023-04-07T00:27:30;9.23;;;6.83;;
6513;SDS011;3290;47.716;9.070;2023-04-07T00:29:55;8.83;;;6.07;;
6513;SDS011;3290;47.716;9.070;2023-04-07T00:32:21;10.47;;;6.20;;
6513;SDS011;3290;47.716;9.070;2023-04-07T00:34:46;9.37;;;6.70;;
6513;SDS011;3290;47.716;9.070;2023-04-07T00:37:12;16.23;;;7.30;;
6513;SDS011;3290;47.716;9.070;2023-04-07T00:39:37;10.33;;;5.93;;
6513;SDS011;3290;47.716;9.070;2023-04-07T00:42:03;9.60;;;6.30;;
6513;SDS011;3290;47.716;9.070;2023-04-07T00:44:32;9.87;;;5.60;;
6513;SDS011;3290;47.716;9.070;2023-04-07T00:46:58;8.73;;;6.07;;
6513;SDS011;3290;47.716;9.070;2023-04-07T00:49:24;8.33;;;5.80;;
6513;SDS011;3290;47.716;9.070;2023-04-07T00:51:52;8.53;;;6.13;;
6513;SDS011;3290;47.716;9.070;2023-04-07T00:54:18;10.23;;;6.27;;
6513;SDS011;3290;47.716;9.070;2023-04-07T00:56:44;13.10;;;6.07;;
6513;SDS011;3290;47.716;9.070;2023-04-07T00:59:09;15.20;;;8.10;;
6513;SDS011;3290;47.716;9.070;2023-04-07T01:01:38;12.77;;;6.77;;
6513;SDS011;3290;47.716;9.070;2023-04-07T01:04:10;11.50;;;6.70;;
6513;SDS011;3290;47.716;9.070;2023-04-07T01:06:46;13.80;;;7.37;;
6513;SDS011;3290;47.716;9.070;2023-04-07T01:09:18;9.17;;;5.77;;
6513;SDS011;3290;47.716;9.070;2023-04-07T01:14:26;7.70;;;5.30;;
6513;SDS011;3290;47.716;9.070;2023-04-07T01:16:57;8.87;;;5.80;;
6513;SDS011;3290;47.716;9.070;2023-04-07T01:22:42;6.57;;;4.50;;
6513;SDS011;3290;47.716;9.070;2023-04-07T01:25:25;6.77;;;4.70;;
6513;SDS011;3290;47.716;9.070;2023-04-07T01:30:50;6.93;;;5.50;;
6513;SDS011;3290;47.716;9.070;2023-04-07T01:33:18;8.47;;;5.50;;
6513;SDS011;3290;47.716;9.070;2023-04-07T01:35:45;6.60;;;5.00;;
6513;SDS011;3290;47.716;9.070;2023-04-07T01:38:10;7.10;;;5.40;;
6513;SDS011;3290;47.716;9.070;2023-04-07T01:40:38;10.00;;;5.67;;
6513;SDS011;3290;47.716;9.070;2023-04-07T01:43:04;6.77;;;4.93;;
6513;SDS011;3290;47.716;9.070;2023-04-07T01:45:30;7.63;;;5.60;;
6513;SDS011;3290;47.716;9.070;2023-04-07T01:47:59;11.93;;;7.23;;
6513;SDS011;3290;47.716;9.070;2023-04-07T01:50:25;11.23;;;6.20;;
6513;SDS011;3290;47.716;9.070;2023-04-07T01:52:52;12.60;;;7.30;;
6513;SDS011;3290;47.716;9.070;2023-04-07T01:55:18;8.83;;;4.90;;
6513;SDS011;3290;47.716;9.070;2023-04-07T01:57:43;8.80;;;5.23;;
6513;SDS011;3290;47.716;9.070;2023-04-07T02:00:09;7.83;;;5.37;;
6513;SDS011;3290;47.716;9.070;2023-04-07T02:02:35;11.73;;;5.67;;
6513;SDS011;3290;47.716;9.070;2023-04-07T02:05:08;10.27;;;6.13;;
6513;SDS011;3290;47.716;9.070;2023-04-07T02:07:44;8.77;;;6.10;;
6513;SDS011;3290;47.716;9.070;2023-04-07T02:10:14;9.87;;;5.63;;
6513;SDS011;3290;47.716;9.070;2023-04-07T02:12:41;12.37;;;5.90;;
6513;SDS011;3290;47.716;9.070;2023-04-07T02:15:08;8.17;;;5.43;;
6513;SDS011;3290;47.716;9.070;2023-04-07T02:17:37;10.40;;;5.93;;
6513;SDS011;3290;47.716;9.070;2023-04-07T02:20:05;8.40;;;5.53;;
6513;SDS011;3290;47.716;9.070;2023-04-07T02:22:50;7.07;;;5.30;;
6513;SDS011;3290;47.716;9.070;2023-04-07T02:25:24;6.17;;;5.13;;
6513;SDS011;3290;47.716;9.070;2023-04-07T02:27:50;8.30;;;5.50;;
6513;SDS011;3290;47.716;9.070;2023-04-07T02:30:16;10.30;;;5.50;;
6513;SDS011;3290;47.716;9.070;2023-04-07T02:32:43;6.83;;;5.10;;
6513;SDS011;3290;47.716;9.070;2023-04-07T02:35:08;8.13;;;5.87;;
6513;SDS011;3290;47.716;9.070;2023-04-07T02:37:34;8.70;;;5.97;;
6513;SDS011;3290;47.716;9.070;2023-04-07T02:39:59;6.80;;;5.10;;
6513;SDS011;3290;47.716;9.070;2023-04-07T02:42:25;8.00;;;5.17;;
6513;SDS011;3290;47.716;9.070;2023-04-07T02:44:50;9.13;;;5.33;;
6513;SDS011;3290;47.716;9.070;2023-04-07T02:47:16;10.10;;;5.53;;
6513;SDS011;3290;47.716;9.070;2023-04-07T02:49:41;10.07;;;4.90;;
6513;SDS011;3290;47.716;9.070;2023-04-07T02:52:06;23.73;;;13.10;;
6513;SDS011;3290;47.716;9.070;2023-04-07T02:54:32;26.53;;;12.13;;
6513;SDS011;3290;47.716;9.070;2023-04-07T02:56:57;29.30;;;14.60;;
6513;SDS011;3290;47.716;9.070;2023-04-07T02:59:23;20.80;;;9.20;;
6513;SDS011;3290;47.716;9.070;2023-04-07T03:01:48;12.63;;;6.50;;
6513;SDS011;3290;47.716;9.070;2023-04-07T03:04:13;8.90;;;5.97;;
6513;SDS011;3290;47.716;9.070;2023-04-07T03:06:39;8.80;;;5.37;;
6513;SDS011;3290;47.716;9.070;2023-04-07T03:09:04;8.03;;;4.87;;
6513;SDS011;3290;47.716;9.070;2023-04-07T03:11:29;8.50;;;5.00;;
6513;SDS011;3290;47.716;9.070;2023-04-07T03:13:55;9.60;;;5.53;;
6513;SDS011;3290;47.716;9.070;2023-04-07T03:16:20;7.60;;;5.10;;
6513;SDS011;3290;47.716;9.070;2023-04-07T03:18:46;9.53;;;5.27;;
6513;SDS011;3290;47.716;9.070;2023-04-07T03:21:11;7.10;;;4.90;;
6513;SDS011;3290;47.716;9.070;2023-04-07T03:23:37;7.07;;;5.10;;
6513;SDS011;3290;47.716;9.070;2023-04-07T03:26:02;6.53;;;4.53;;
6513;SDS011;3290;47.716;9.070;2023-04-07T03:28:27;4.83;;;4.13;;
6513;SDS011;3290;47.716;9.070;2023-04-07T03:30:53;7.00;;;5.17;;
6513;SDS011;3290;47.716;9.070;2023-04-07T03:33:18;8.00;;;4.73;;
6513;SDS011;3290;47.716;9.070;2023-04-07T03:35:44;9.60;;;5.00;;
6513;SDS011;3290;47.716;9.070;2023-04-07T03:38:09;8.87;;;4.77;;
6513;SDS011;3290;47.716;9.070;2023-04-07T03:40:35;6.60;;;4.57;;
6513;SDS011;3290;47.716;9.070;2023-04-07T03:43:01;10.00;;;3.87;;
6513;SDS011;3290;47.716;9.070;2023-04-07T03:45:27;7.93;;;5.03;;
6513;SDS011;3290;47.716;9.070;2023-04-07T03:47:52;7.47;;;4.83;;
6513;SDS011;3290;47.716;9.070;2023-04-07T03:50:18;9.33;;;5.33;;
6513;SDS011;3290;47.716;9.070;2023-04-07T03:52:44;8.13;;;4.60;;
6513;SDS011;3290;47.716;9.070;2023-04-07T03:55:09;7.27;;;5.00;;
6513;SDS011;3290;47.716;9.070;2023-04-07T03:57:35;5.77;;;4.17;;
6513;SDS011;3290;47.716;9.070;2023-04-07T04:00:00;4.80;;;4.30;;
6513;SDS011;3290;47.716;9.070;2023-04-07T04:02:26;6.30;;;4.50;;
6513;SDS011;3290;47.716;9.070;2023-04-07T04:04:52;8.10;;;6.23;;
6513;SDS011;3290;47.716;9.070;2023-04-07T04:07:17;7.80;;;5.40;;
6513;SDS011;3290;47.716;9.070;2023-04-07T04:09:42;6.53;;;4.93;;
6513;SDS011;3290;47.716;9.070;2023-04-07T04:12:08;6.23;;;4.53;;
6513;SDS011;3290;47.716;9.070;2023-04-07T04:14:33;5.67;;;4.60;;
6513;SDS011;3290;47.716;9.070;2023-04-07T04:16:58;5.23;;;4.60;;
6513;SDS011;3290;47.716;9.070;2023-04-07T04:19:24;6.43;;;4.50;;
6513;SDS011;3290;47.716;9.070;2023-04-07T04:21:50;5.27;;;4.20;;
6513;SDS011;3290;47.716;9.070;2023-04-07T04:24:15;6.97;;;4.57;;
6513;SDS011;3290;47.716;9.070;2023-04-07T04:26:41;9.50;;;5.57;;
6513;SDS011;3290;47.716;9.070;2023-04-07T04:29:06;7.23;;;4.37;;
6513;SDS011;3290;47.716;9.070;2023-04-07T04:31:31;6.47;;;4.10;;
6513;SDS011;3290;47.716;9.070;2023-04-07T04:33:57;7.10;;;4.83;;
6513;SDS011;3290;47.716;9.070;2023-04-07T04:36:22;10.73;;;5.70;;
6513;SDS011;3290;47.716;9.070;2023-04-07T04:38:48;5.80;;;5.00;;
6513;SDS011;3290;47.716;9.070;2023-04-07T04:41:13;11.40;;;5.93;;
6513;SDS011;3290;47.716;9.070;2023-04-07T04:43:39;8.17;;;4.20;;
6513;SDS011;3290;47.716;9.070;2023-04-07T04:46:04;7.23;;;4.87;;
6513;SDS011;3290;47.716;9.070;2023-04-07T04:48:30;6.50;;;4.63;;
6513;SDS011;3290;47.716;9.070;2023-04-07T04:50:55;6.27;;;4.70;;
6513;SDS011;3290;47.716;9.070;2023-04-07T04:53:20;6.87;;;4.97;;
6513;SDS011;3290;47.716;9.070;2023-04-07T04:55:46;7.60;;;5.13;;
6513;SDS011;3290;47.716;9.070;2023-04-07T04:58:15;9.10;;;5.50;;
6513;SDS011;3290;47.716;9.070;2023-04-07T05:00:41;8.23;;;5.07;;
6513;SDS011;3290;47.716;9.070;2023-04-07T05:03:07;8.27;;;4.87;;
6513;SDS011;3290;47.716;9.070;2023-04-07T05:05:32;6.20;;;4.93;;
6513;SDS011;3290;47.716;9.070;2023-04-07T05:07:57;6.80;;;5.33;;
6513;SDS011;3290;47.716;9.070;2023-04-07T05:10:23;7.07;;;5.20;;
6513;SDS011;3290;47.716;9.070;2023-04-07T05:12:48;9.27;;;6.27;;
6513;SDS011;3290;47.716;9.070;2023-04-07T05:15:13;7.70;;;4.97;;
6513;SDS011;3290;47.716;9.070;2023-04-07T05:17:39;5.40;;;4.27;;
6513;SDS011;3290;47.716;9.070;2023-04-07T05:20:05;19.10;;;5.70;;
6513;SDS011;3290;47.716;9.070;2023-04-07T05:22:33;7.30;;;5.20;;
6513;SDS011;3290;47.716;9.070;2023-04-07T05:24:58;6.10;;;5.17;;
6513;SDS011;3290;47.716;9.070;2023-04-07T05:27:23;7.30;;;5.47;;
6513;SDS011;3290;47.716;9.070;2023-04-07T05:29:49;8.63;;;6.47;;
6513;SDS011;3290;47.716;9.070;2023-04-07T05:32:14;6.60;;;5.10;;
6513;SDS011;3290;47.716;9.070;2023-04-07T05:34:41;5.40;;;4.70;;
6513;SDS011;3290;47.716;9.070;2023-04-07T05:37:06;7.67;;;5.40;;
6513;SDS011;3290;47.716;9.070;2023-04-07T05:39:32;5.47;;;4.63;;
6513;SDS011;3290;47.716;9.070;2023-04-07T05:41:57;7.17;;;4.53;;
6513;SDS011;3290;47.716;9.070;2023-04-07T05:44:22;5.90;;;4.40;;
6513;SDS011;3290;47.716;9.070;2023-04-07T05:46:48;8.10;;;4.77;;
6513;SDS011;3290;47.716;9.070;2023-04-07T05:49:13;8.00;;;4.80;;
6513;SDS011;3290;47.716;9.070;2023-04-07T05:51:38;10.00;;;5.10;;
6513;SDS011;3290;47.716;9.070;2023-04-07T05:54:04;7.50;;;5.20;;
6513;SDS011;3290;47.716;9.070;2023-04-07T05:56:29;7.47;;;5.93;;
6513;SDS011;3290;47.716;9.070;2023-04-07T05:58:55;9.90;;;5.10;;
6513;SDS011;3290;47.716;9.070;2023-04-07T06:01:20;6.97;;;5.00;;
6513;SDS011;3290;47.716;9.070;2023-04-07T06:03:46;5.90;;;4.30;;
6513;SDS011;3290;47.716;9.070;2023-04-07T06:06:11;5.97;;;4.40;;
6513;SDS011;3290;47.716;9.070;2023-04-07T06:08:37;8.37;;;4.70;;
6513;SDS011;3290;47.716;9.070;2023-04-07T06:11:02;7.03;;;5.33;;
6513;SDS011;3290;47.716;9.070;2023-04-07T06:13:27;5.40;;;4.50;;
6513;SDS011;3290;47.716;9.070;2023-04-07T06:15:56;6.83;;;5.13;;
6513;SDS011;3290;47.716;9.070;2023-04-07T06:18:21;8.70;;;4.93;;
6513;SDS011;3290;47.716;9.070;2023-04-07T06:20:47;7.63;;;5.50;;
6513;SDS011;3290;47.716;9.070;2023-04-07T06:23:12;6.23;;;4.83;;
6513;SDS011;3290;47.716;9.070;2023-04-07T06:25:37;7.10;;;4.97;;
6513;SDS011;3290;47.716;9.070;2023-04-07T06:28:03;8.30;;;4.50;;
6513;SDS011;3290;47.716;9.070;2023-04-07T06:30:28;6.30;;;4.33;;
6513;SDS011;3290;47.716;9.070;2023-04-07T06:32:53;6.60;;;4.53;;
6513;SDS011;3290;47.716;9.070;2023-04-07T06:35:20;7.33;;;5.23;;
6513;SDS011;3290;47.716;9.070;2023-04-07T06:37:45;13.07;;;5.80;;
6513;SDS011;3290;47.716;9.070;2023-04-07T06:40:11;6.43;;;4.53;;
6513;SDS011;3290;47.716;9.070;2023-04-07T06:42:36;6.87;;;5.00;;
6513;SDS011;3290;47.716;9.070;2023-04-07T06:45:01;8.50;;;5.30;;
6513;SDS011;3290;47.716;9.070;2023-04-07T06:47:27;9.93;;;5.53;;
6513;SDS011;3290;47.716;9.070;2023-04-07T06:49:53;6.27;;;4.17;;
6513;SDS011;3290;47.716;9.070;2023-04-07T06:52:18;10.63;;;5.37;;
6513;SDS011;3290;47.716;9.070;2023-04-07T06:54:43;7.20;;;5.07;;
6513;SDS011;3290;47.716;9.070;2023-04-07T06:57:09;11.23;;;5.20;;
6513;SDS011;3290;47.716;9.070;2023-04-07T06:59:37;5.93;;;4.60;;
6513;SDS011;3290;47.716;9.070;2023-04-07T07:02:03;8.53;;;4.97;;
6513;SDS011;3290;47.716;9.070;2023-04-07T07:04:28;6.80;;;4.77;;
6513;SDS011;3290;47.716;9.070;2023-04-07T07:06:53;6.10;;;4.50;;
6513;SDS011;3290;47.716;9.070;2023-04-07T07:09:20;5.33;;;4.27;;
6513;SDS011;3290;47.716;9.070;2023-04-07T07:11:45;6.30;;;4.47;;
6513;SDS011;3290;47.716;9.070;2023-04-07T07:14:11;5.07;;;3.93;;
6513;SDS011;3290;47.716;9.070;2023-04-07T07:16:37;6.40;;;4.50;;
6513;SDS011;3290;47.716;9.070;2023-04-07T07:19:02;6.00;;;4.83;;
6513;SDS011;3290;47.716;9.070;2023-04-07T07:21:28;9.43;;;4.37;;
6513;SDS011;3290;47.716;9.070;2023-04-07T07:23:53;5.30;;;3.87;;
6513;SDS011;3290;47.716;9.070;2023-04-07T07:26:18;4.57;;;3.70;;
6513;SDS011;3290;47.716;9.070;2023-04-07T07:28:44;5.23;;;4.33;;
6513;SDS011;3290;47.716;9.070;2023-04-07T07:31:11;7.17;;;4.70;;
6513;SDS011;3290;47.716;9.070;2023-04-07T07:33:40;8.67;;;5.50;;
6513;SDS011;3290;47.716;9.070;2023-04-07T07:36:08;7.43;;;4.60;;
6513;SDS011;3290;47.716;9.070;2023-04-07T07:38:34;9.87;;;6.10;;
6513;SDS011;3290;47.716;9.070;2023-04-07T07:41:00;8.07;;;5.30;;
6513;SDS011;3290;47.716;9.070;2023-04-07T07:43:26;6.87;;;4.80;;
6513;SDS011;3290;47.716;9.070;2023-04-07T07:45:51;7.60;;;4.83;;
6513;SDS011;3290;47.716;9.070;2023-04-07T07:48:16;6.17;;;4.63;;
6513;SDS011;3290;47.716;9.070;2023-04-07T07:50:42;5.57;;;4.73;;
6513;SDS011;3290;47.716;9.070;2023-04-07T07:53:08;5.33;;;4.50;;
6513;SDS011;3290;47.716;9.070;2023-04-07T07:55:34;6.77;;;5.07;;
6513;SDS011;3290;47.716;9.070;2023-04-07T07:57:59;10.20;;;4.80;;
6513;SDS011;3290;47.716;9.070;2023-04-07T08:00:25;10.37;;;5.30;;
6513;SDS011;3290;47.716;9.070;2023-04-07T08:02:50;8.40;;;4.67;;
6513;SDS011;3290;47.716;9.070;2023-04-07T08:05:16;7.23;;;5.17;;
6513;SDS011;3290;47.716;9.070;2023-04-07T08:07:41;7.47;;;5.23;;
6513;SDS011;3290;47.716;9.070;2023-04-07T08:10:07;10.17;;;5.50;;
6513;SDS011;3290;47.716;9.070;2023-04-07T08:12:33;8.40;;;5.33;;
6513;SDS011;3290;47.716;9.070;2023-04-07T08:14:59;5.00;;;4.00;;
6513;SDS011;3290;47.716;9.070;2023-04-07T08:17:24;7.90;;;4.90;;
6513;SDS011;3290;47.716;9.070;2023-04-07T08:19:50;8.40;;;4.90;;
6513;SDS011;3290;47.716;9.070;2023-04-07T08:22:15;5.77;;;4.83;;
6513;SDS011;3290;47.716;9.070;2023-04-07T08:24:43;8.23;;;4.70;;
6513;SDS011;3290;47.716;9.070;2023-04-07T08:27:09;8.07;;;5.30;;
6513;SDS011;3290;47.716;9.070;2023-04-07T08:29:34;7.17;;;5.00;;
6513;SDS011;3290;47.716;9.070;2023-04-07T08:32:00;9.53;;;5.30;;
6513;SDS011;3290;47.716;9.070;2023-04-07T08:34:25;7.73;;;5.47;;
6513;SDS011;3290;47.716;9.070;2023-04-07T08:36:50;9.07;;;5.20;;
6513;SDS011;3290;47.716;9.070;2023-04-07T08:39:16;8.10;;;5.73;;
6513;SDS011;3290;47.716;9.070;2023-04-07T08:41:41;6.80;;;6.10;;
6513;SDS011;3290;47.716;9.070;2023-04-07T08:44:09;8.03;;;5.23;;
6513;SDS011;3290;47.716;9.070;2023-04-07T08:46:36;11.47;;;5.20;;
6513;SDS011;3290;47.716;9.070;2023-04-07T08:49:03;7.93;;;5.40;;
6513;SDS011;3290;47.716;9.070;2023-04-07T08:51:34;8.47;;;5.77;;
6513;SDS011;3290;47.716;9.070;2023-04-07T08:56:38;7.27;;;5.50;;
6513;SDS011;3290;47.716;9.070;2023-04-07T08:59:08;9.30;;;5.87;;
6513;SDS011;3290;47.716;9.070;2023-04-07T09:01:37;10.63;;;6.73;;
6513;SDS011;3290;47.716;9.070;2023-04-07T09:04:04;7.00;;;5.90;;
6513;SDS011;3290;47.716;9.070;2023-04-07T09:06:31;9.10;;;5.20;;
6513;SDS011;3290;47.716;9.070;2023-04-07T09:08:58;8.03;;;5.23;;
6513;SDS011;3290;47.716;9.070;2023-04-07T09:11:25;9.93;;;5.60;;
6513;SDS011;3290;47.716;9.070;2023-04-07T09:13:51;10.10;;;6.30;;
6513;SDS011;3290;47.716;9.070;2023-04-07T09:16:16;13.40;;;6.50;;
6513;SDS011;3290;47.716;9.070;2023-04-07T09:18:42;7.83;;;6.43;;
6513;SDS011;3290;47.716;9.070;2023-04-07T09:21:08;9.60;;;5.77;;
6513;SDS011;3290;47.716;9.070;2023-04-07T09:23:35;6.63;;;5.53;;
6513;SDS011;3290;47.716;9.070;2023-04-07T09:28:46;8.10;;;5.80;;
6513;SDS011;3290;47.716;9.070;2023-04-07T09:31:48;10.97;;;5.67;;
6513;SDS011;3290;47.716;9.070;2023-04-07T09:37:22;13.27;;;5.93;;
6513;SDS011;3290;47.716;9.070;2023-04-07T09:39:49;8.80;;;5.17;;
6513;SDS011;3290;47.716;9.070;2023-04-07T09:42:15;9.40;;;5.43;;
6513;SDS011;3290;47.716;9.070;2023-04-07T09:44:41;7.87;;;4.80;;
6513;SDS011;3290;47.716;9.070;2023-04-07T09:47:08;7.90;;;5.53;;
6513;SDS011;3290;47.716;9.070;2023-04-07T09:49:34;7.47;;;5.60;;
6513;SDS011;3290;47.716;9.070;2023-04-07T09:52:13;5.83;;;4.80;;
6513;SDS011;3290;47.716;9.070;2023-04-07T09:54:39;8.27;;;5.40;;
6513;SDS011;3290;47.716;9.070;2023-04-07T09:57:09;8.67;;;5.20;;
6513;SDS011;3290;47.716;9.070;2023-04-07T09:59:41;7.73;;;5.83;;
6513;SDS011;3290;47.716;9.070;2023-04-07T10:02:06;8.90;;;5.67;;
6513;SDS011;3290;47.716;9.070;2023-04-07T10:04:32;6.77;;;4.50;;
6513;SDS011;3290;47.716;9.070;2023-04-07T10:06:58;8.30;;;5.30;;
6513;SDS011;3290;47.716;9.070;2023-04-07T10:09:28;6.27;;;5.10;;
6513;SDS011;3290;47.716;9.070;2023-04-07T10:11:55;8.90;;;5.30;;
6513;SDS011;3290;47.716;9.070;2023-04-07T10:14:26;7.87;;;5.20;;
6513;SDS011;3290;47.716;9.070;2023-04-07T10:16:53;6.43;;;5.20;;
6513;SDS011;3290;47.716;9.070;2023-04-07T10:19:19;7.77;;;5.67;;
6513;SDS011;3290;47.716;9.070;2023-04-07T10:21:45;8.80;;;5.73;;
6513;SDS011;3290;47.716;9.070;2023-04-07T10:26:52;7.80;;;5.00;;
6513;SDS011;3290;47.716;9.070;2023-04-07T10:29:20;7.13;;;5.33;;
6513;SDS011;3290;47.716;9.070;2023-04-07T10:31:48;6.73;;;4.63;;
6513;SDS011;3290;47.716;9.070;2023-04-07T10:34:14;8.47;;;5.20;;
6513;SDS011;3290;47.716;9.070;2023-04-07T10:39:37;6.97;;;5.20;;
6513;SDS011;3290;47.716;9.070;2023-04-07T10:42:02;7.97;;;4.50;;
6513;SDS011;3290;47.716;9.070;2023-04-07T10:47:03;7.57;;;4.63;;
6513;SDS011;3290;47.716;9.070;2023-04-07T10:49:29;7.63;;;4.83;;
6513;SDS011;3290;47.716;9.070;2023-04-07T10:54:36;6.97;;;4.43;;
6513;SDS011;3290;47.716;9.070;2023-04-07T10:59:31;8.70;;;5.37;;
6513;SDS011;3290;47.716;9.070;2023-04-07T11:04:39;5.20;;;4.40;;
6513;SDS011;3290;47.716;9.070;2023-04-07T11:07:10;8.07;;;4.20;;
6513;SDS011;3290;47.716;9.070;2023-04-07T11:09:37;6.13;;;4.10;;
6513;SDS011;3290;47.716;9.070;2023-04-07T11:12:03;7.10;;;4.30;;
6513;SDS011;3290;47.716;9.070;2023-04-07T11:14:29;7.67;;;4.37;;
6513;SDS011;3290;47.716;9.070;2023-04-07T11:16:56;7.00;;;5.00;;
6513;SDS011;3290;47.716;9.070;2023-04-07T11:19:23;5.57;;;4.70;;
6513;SDS011;3290;47.716;9.070;2023-04-07T11:21:48;9.43;;;6.07;;
6513;SDS011;3290;47.716;9.070;2023-04-07T11:27:04;10.20;;;5.10;;
6513;SDS011;3290;47.716;9.070;2023-04-07T11:29:30;8.60;;;5.27;;
6513;SDS011;3290;47.716;9.070;2023-04-07T11:31:57;7.23;;;5.40;;
6513;SDS011;3290;47.716;9.070;2023-04-07T11:34:30;8.10;;;4.53;;
6513;SDS011;3290;47.716;9.070;2023-04-07T11:37:21;6.77;;;4.93;;
6513;SDS011;3290;47.716;9.070;2023-04-07T11:39:53;7.43;;;5.20;;
6513;SDS011;3290;47.716;9.070;2023-04-07T11:45:00;7.40;;;4.50;;
6513;SDS011;3290;47.716;9.070;2023-04-07T11:47:35;5.10;;;4.10;;
6513;SDS011;3290;47.716;9.070;2023-04-07T11:50:02;9.07;;;5.00;;
6513;SDS011;3290;47.716;9.070;2023-04-07T11:52:28;4.80;;;3.73;;
6513;SDS011;3290;47.716;9.070;2023-04-07T11:55:05;7.47;;;4.07;;
6513;SDS011;3290;47.716;9.070;2023-04-07T11:57:30;6.40;;;4.00;;
6513;SDS011;3290;47.716;9.070;2023-04-07T12:00:09;5.60;;;4.03;;
6513;SDS011;3290;47.716;9.070;2023-04-07T12:02:35;6.10;;;4.00;;
6513;SDS011;3290;47.716;9.070;2023-04-07T12:05:01;4.63;;;3.70;;
6513;SDS011;3290;47.716;9.070;2023-04-07T12:07:27;6.07;;;4.20;;
6513;SDS011;3290;47.716;9.070;2023-04-07T12:09:53;4.87;;;4.13;;
6513;SDS011;3290;47.716;9.070;2023-04-07T12:12:25;5.20;;;3.70;;
6513;SDS011;3290;47.716;9.070;2023-04-07T12:14:52;6.20;;;3.80;;
6513;SDS011;3290;47.716;9.070;2023-04-07T12:17:24;4.93;;;3.60;;
6513;SDS011;3290;47.716;9.070;2023-04-07T12:19:51;6.50;;;4.50;;
6513;SDS011;3290;47.716;9.070;2023-04-07T12:22:17;5.10;;;4.10;;
6513;SDS011;3290;47.716;9.070;2023-04-07T12:24:43;6.40;;;4.00;;
6513;SDS011;3290;47.716;9.070;2023-04-07T12:27:10;8.03;;;3.63;;
6513;SDS011;3290;47.716;9.070;2023-04-07T12:29:35;5.67;;;4.10;;
6513;SDS011;3290;47.716;9.070;2023-04-07T12:32:04;4.90;;;3.40;;
6513;SDS011;3290;47.716;9.070;2023-04-07T12:34:29;5.33;;;3.67;;
6513;SDS011;3290;47.716;9.070;2023-04-07T12:36:55;3.13;;;2.83;;
6513;SDS011;3290;47.716;9.070;2023-04-07T12:39:20;4.87;;;3.63;;
6513;SDS011;3290;47.716;9.070;2023-04-07T12:41:46;3.47;;;3.17;;
6513;SDS011;3290;47.716;9.070;2023-04-07T12:44:12;5.00;;;3.60;;
6513;SDS011;3290;47.716;9.070;2023-04-07T12:46:38;3.60;;;3.10;;
6513;SDS011;3290;47.716;9.070;2023-04-07T12:49:03;3.90;;;3.20;;
6513;SDS011;3290;47.716;9.070;2023-04-07T12:51:29;4.90;;;3.60;;
6513;SDS011;3290;47.716;9.070;2023-04-07T12:53:57;4.30;;;3.90;;
6513;SDS011;3290;47.716;9.070;2023-04-07T12:56:22;4.47;;;3.30;;
6513;SDS011;3290;47.716;9.070;2023-04-07T12:58:48;4.80;;;3.47;;
6513;SDS011;3290;47.716;9.070;2023-04-07T13:01:13;4.67;;;3.63;;
6513;SDS011;3290;47.716;9.070;2023-04-07T13:03:39;5.47;;;2.90;;
6513;SDS011;3290;47.716;9.070;2023-04-07T13:06:04;3.10;;;2.80;;
6513;SDS011;3290;47.716;9.070;2023-04-07T13:08:30;4.30;;;2.53;;
6513;SDS011;3290;47.716;9.070;2023-04-07T13:10:55;3.43;;;3.07;;
6513;SDS011;3290;47.716;9.070;2023-04-07T13:13:21;3.63;;;3.00;;
6513;SDS011;3290;47.716;9.070;2023-04-07T13:15:47;2.97;;;2.53;;
6513;SDS011;3290;47.716;9.070;2023-04-07T13:18:13;4.50;;;2.73;;
6513;SDS011;3290;47.716;9.070;2023-04-07T13:20:38;4.17;;;2.90;;
6513;SDS011;3290;47.716;9.070;2023-04-07T13:23:03;3.00;;;2.57;;
6513;SDS011;3290;47.716;9.070;2023-04-07T13:25:30;2.50;;;2.30;;
6513;SDS011;3290;47.716;9.070;2023-04-07T13:27:56;3.80;;;2.80;;
6513;SDS011;3290;47.716;9.070;2023-04-07T13:30:21;3.10;;;2.30;;
6513;SDS011;3290;47.716;9.070;2023-04-07T13:32:47;3.60;;;2.80;;
6513;SDS011;3290;47.716;9.070;2023-04-07T13:35:15;2.60;;;2.40;;
6513;SDS011;3290;47.716;9.070;2023-04-07T13:37:41;2.50;;;2.30;;
6513;SDS011;3290;47.716;9.070;2023-04-07T13:40:07;2.33;;;2.07;;
6513;SDS011;3290;47.716;9.070;2023-04-07T13:42:33;3.07;;;2.40;;
6513;SDS011;3290;47.716;9.070;2023-04-07T13:44:58;2.10;;;1.90;;
6513;SDS011;3290;47.716;9.070;2023-04-07T13:47:23;2.67;;;2.23;;
6513;SDS011;3290;47.716;9.070;2023-04-07T13:49:49;3.30;;;2.30;;
6513;SDS011;3290;47.716;9.070;2023-04-07T13:52:16;2.23;;;2.00;;
6513;SDS011;3290;47.716;9.070;2023-04-07T13:54:42;2.40;;;2.20;;
6513;SDS011;3290;47.716;9.070;2023-04-07T13:57:08;3.53;;;2.30;;
6513;SDS011;3290;47.716;9.070;2023-04-07T13:59:33;2.53;;;2.13;;
6513;SDS011;3290;47.716;9.070;2023-04-07T14:01:58;3.93;;;2.00;;
6513;SDS011;3290;47.716;9.070;2023-04-07T14:04:24;2.13;;;1.93;;
6513;SDS011;3290;47.716;9.070;2023-04-07T14:06:49;4.90;;;2.20;;
6513;SDS011;3290;47.716;9.070;2023-04-07T14:09:15;2.63;;;2.30;;
6513;SDS011;3290;47.716;9.070;2023-04-07T14:11:40;2.63;;;2.40;;
6513;SDS011;3290;47.716;9.070;2023-04-07T14:14:05;2.20;;;2.00;;
6513;SDS011;3290;47.716;9.070;2023-04-07T14:16:31;2.93;;;2.70;;
6513;SDS011;3290;47.716;9.070;2023-04-07T14:18:56;3.30;;;3.00;;
6513;SDS011;3290;47.716;9.070;2023-04-07T14:21:22;2.30;;;2.10;;
6513;SDS011;3290;47.716;9.070;2023-04-07T14:23:48;2.97;;;2.20;;
6513;SDS011;3290;47.716;9.070;2023-04-07T14:26:13;2.40;;;2.20;;
6513;SDS011;3290;47.716;9.070;2023-04-07T14:28:39;4.10;;;2.47;;
6513;SDS011;3290;47.716;9.070;2023-04-07T14:31:05;3.07;;;2.67;;
6513;SDS011;3290;47.716;9.070;2023-04-07T14:33:31;2.37;;;2.17;;
6513;SDS011;3290;47.716;9.070;2023-04-07T14:35:56;3.50;;;2.60;;
6513;SDS011;3290;47.716;9.070;2023-04-07T14:38:22;4.13;;;2.43;;
6513;SDS011;3290;47.716;9.070;2023-04-07T14:40:49;2.80;;;2.50;;
6513;SDS011;3290;47.716;9.070;2023-04-07T14:43:15;4.30;;;2.73;;
6513;SDS011;3290;47.716;9.070;2023-04-07T14:45:41;3.60;;;2.80;;
6513;SDS011;3290;47.716;9.070;2023-04-07T14:48:06;2.40;;;2.13;;
6513;SDS011;3290;47.716;9.070;2023-04-07T14:50:32;3.80;;;3.13;;
6513;SDS011;3290;47.716;9.070;2023-04-07T14:52:58;3.47;;;2.60;;
6513;SDS011;3290;47.716;9.070;2023-04-07T14:55:23;3.37;;;2.30;;
6513;SDS011;3290;47.716;9.070;2023-04-07T14:57:49;3.83;;;2.90;;
6513;SDS011;3290;47.716;9.070;2023-04-07T15:00:14;3.00;;;2.30;;
6513;SDS011;3290;47.716;9.070;2023-04-07T15:02:40;2.83;;;2.60;;
6513;SDS011;3290;47.716;9.070;2023-04-07T15:05:05;4.13;;;2.87;;
6513;SDS011;3290;47.716;9.070;2023-04-07T15:07:31;2.43;;;2.23;;
6513;SDS011;3290;47.716;9.070;2023-04-07T15:09:57;3.73;;;2.27;;
6513;SDS011;3290;47.716;9.070;2023-04-07T15:12:23;2.70;;;2.20;;
6513;SDS011;3290;47.716;9.070;2023-04-07T15:14:50;4.00;;;2.47;;
6513;SDS011;3290;47.716;9.070;2023-04-07T15:17:18;2.43;;;2.10;;
6513;SDS011;3290;47.716;9.070;2023-04-07T15:19:50;3.33;;;2.50;;
6513;SDS011;3290;47.716;9.070;2023-04-07T15:22:18;3.97;;;2.67;;
6513;SDS011;3290;47.716;9.070;2023-04-07T15:24:44;2.37;;;2.17;;
6513;SDS011;3290;47.716;9.070;2023-04-07T15:27:09;2.40;;;2.17;;
6513;SDS011;3290;47.716;9.070;2023-04-07T15:29:35;3.03;;;2.50;;
6513;SDS011;3290;47.716;9.070;2023-04-07T15:32:01;4.37;;;2.30;;
6513;SDS011;3290;47.716;9.070;2023-04-07T15:34:26;4.87;;;2.40;;
6513;SDS011;3290;47.716;9.070;2023-04-07T15:36:52;2.40;;;2.20;;
6513;SDS011;3290;47.716;9.070;2023-04-07T15:39:17;3.10;;;2.30;;
6513;SDS011;3290;47.716;9.070;2023-04-07T15:41:42;2.57;;;2.30;;
6513;SDS011;3290;47.716;9.070;2023-04-07T15:44:08;3.40;;;1.97;;
6513;SDS011;3290;47.716;9.070;2023-04-07T15:46:33;2.20;;;1.90;;